Time;durP1;ratioP1;P1;durP2;ratioP2;P2;SDS_P1;SDS_P2;PMS_P1;PMS_P2;Temp;Humidity;BMP_temperature;BMP_pressure;BME280_temperature;BME280_humidity;BME280_pressure;Samples;Min_cycle;Max_cycle;Signal;HPM_P1;HPM_P2
2022/10/14 00:02:11;;;;;;;;;16.00;15.67;;;;;;;;5083673;27;45299;-75
2022/10/14 00:04:36;;;;;;;;;13.33;12.00;;;;;;;;5089198;27;45458;-75
2022/10/14 00:07:01;;;;;;;;;14.67;12.67;;;;;;;;5089218;27;45311;-75
2022/10/14 00:09:26;;;;;;;;;14.67;14.00;;;;;;;;5088897;27;45372;-75
2022/10/14 00:11:52;;;;;;;;;12.67;12.67;;;;;;;;5090353;27;45399;-75
2022/10/14 00:14:18;;;;;;;;;13.67;13.67;;;;;;;;5066176;27;45669;-75
2022/10/14 00:16:45;;;;;;;;;12.00;12.00;;;;;;;;5088865;27;45345;-75
2022/10/14 00:19:10;;;;;;;;;12.67;12.33;;;;;;;;5089742;27;45370;-75
2022/10/14 00:21:36;;;;;;;;;11.33;11.00;;;;;;;;5096019;27;45473;-75
2022/10/14 00:24:02;;;;;;;;;12.00;11.00;;;;;;;;5090224;27;45453;-75
2022/10/14 00:26:29;;;;;;;;;13.67;12.33;;;;;;;;5096806;27;45308;-75
2022/10/14 00:28:55;;;;;;;;;11.67;10.00;;;;;;;;5091487;27;45472;-75
2022/10/14 00:31:20;;;;;;;;;14.00;12.00;;;;;;;;5088161;27;45448;-75
2022/10/14 00:33:46;;;;;;;;;12.33;9.67;;;;;;;;5082491;27;45299;-75
2022/10/14 00:36:12;;;;;;;;;10.67;10.33;;;;;;;;5087929;27;45331;-75
2022/10/14 00:38:38;;;;;;;;;12.33;11.00;;;;;;;;5074878;28;45597;-75
2022/10/14 00:41:03;;;;;;;;;10.00;9.00;;;;;;;;5086009;27;45210;-75
2022/10/14 00:43:28;;;;;;;;;11.50;9.00;;;;;;;;5088132;27;45202;-75
2022/10/14 00:45:54;;;;;;;;;13.00;9.67;;;;;;;;5095822;27;45530;-75
2022/10/14 00:48:21;;;;;;;;;12.33;11.33;;;;;;;;5089571;27;45204;-75
2022/10/14 00:50:48;;;;;;;;;7.00;7.00;;;;;;;;5092757;27;45544;-75
2022/10/14 00:53:14;;;;;;;;;8.00;8.00;;;;;;;;5089585;27;45408;-75
2022/10/14 00:55:41;;;;;;;;;10.33;9.33;;;;;;;;5091938;27;45367;-75
2022/10/14 00:58:07;;;;;;;;;6.33;6.33;;;;;;;;5094889;27;45247;-75
2022/10/14 01:00:32;;;;;;;;;8.00;8.00;;;;;;;;5092911;27;45292;-75
2022/10/14 01:02:57;;;;;;;;;10.67;8.00;;;;;;;;5093046;27;45133;-75
2022/10/14 01:05:25;;;;;;;;;6.67;6.67;;;;;;;;5069312;27;47563;-75
2022/10/14 01:07:58;;;;;;;;;6.33;6.33;;;;;;;;5096161;27;45484;-75
2022/10/14 01:10:35;;;;;;;;;6.67;6.67;;;;;;;;5072751;27;45441;-75
2022/10/14 01:13:21;;;;;;;;;10.67;6.00;;;;;;;;5082608;27;46208;-75
2022/10/14 01:16:02;;;;;;;;;8.00;6.33;;;;;;;;5085488;27;45315;-75
2022/10/14 01:18:27;;;;;;;;;7.00;7.00;;;;;;;;5085231;27;45495;-75
2022/10/14 01:21:05;;;;;;;;;6.00;6.00;;;;;;;;5092989;27;45320;-75
2022/10/14 01:23:34;;;;;;;;;6.33;5.67;;;;;;;;5072238;27;46109;-75
2022/10/14 01:26:11;;;;;;;;;8.33;8.33;;;;;;;;5084966;27;46239;-75
2022/10/14 01:28:36;;;;;;;;;7.33;6.67;;;;;;;;5072027;27;45256;-75
2022/10/14 01:31:03;;;;;;;;;5.00;5.00;;;;;;;;5085770;27;45130;-75
2022/10/14 01:33:34;;;;;;;;;6.00;4.00;;;;;;;;5094906;27;45466;-75
2022/10/14 01:36:11;;;;;;;;;4.00;4.00;;;;;;;;5088685;27;46212;-75
2022/10/14 01:38:40;;;;;;;;;3.00;3.00;;;;;;;;5096272;27;45347;-74
2022/10/14 01:41:05;;;;;;;;;3.00;3.00;;;;;;;;5098537;27;45666;-75
2022/10/14 01:43:31;;;;;;;;;4.50;3.25;;;;;;;;5099010;27;45564;-75
2022/10/14 01:45:58;;;;;;;;;3.33;3.33;;;;;;;;5092110;27;45524;-75
2022/10/14 01:48:26;;;;;;;;;3.00;3.00;;;;;;;;5082756;27;45280;-75
2022/10/14 01:50:53;;;;;;;;;2.67;2.67;;;;;;;;5093785;27;45241;-75
2022/10/14 01:53:21;;;;;;;;;6.67;5.00;;;;;;;;5083023;27;45269;-75
2022/10/14 01:55:47;;;;;;;;;4.00;4.00;;;;;;;;5096579;27;47228;-75
2022/10/14 01:58:15;;;;;;;;;5.00;5.00;;;;;;;;5098692;27;45248;-75
2022/10/14 02:00:40;;;;;;;;;3.00;3.00;;;;;;;;5091727;27;45434;-75
2022/10/14 02:03:05;;;;;;;;;4.67;4.67;;;;;;;;5088475;27;45268;-75
2022/10/14 02:05:30;;;;;;;;;4.00;4.00;;;;;;;;5097522;27;45406;-75
2022/10/14 02:08:02;;;;;;;;;5.00;3.00;;;;;;;;5077879;27;45169;-75
2022/10/14 02:10:33;;;;;;;;;3.00;3.00;;;;;;;;5092899;27;45406;-76
2022/10/14 02:13:01;;;;;;;;;6.67;5.00;;;;;;;;5097410;27;45718;-76
2022/10/14 02:15:27;;;;;;;;;4.00;4.00;;;;;;;;5091725;27;47606;-76
2022/10/14 02:17:52;;;;;;;;;5.67;5.67;;;;;;;;5100921;27;45299;-76
2022/10/14 02:20:32;;;;;;;;;3.67;3.67;;;;;;;;5087983;27;45422;-76
2022/10/14 02:23:01;;;;;;;;;5.00;5.00;;;;;;;;5071537;27;46601;-76
2022/10/14 02:25:30;;;;;;;;;4.00;4.00;;;;;;;;5074543;27;48190;-76
2022/10/14 02:27:57;;;;;;;;;6.33;6.00;;;;;;;;5088164;27;45351;-76
2022/10/14 02:30:22;;;;;;;;;3.00;3.00;;;;;;;;5093519;27;45312;-76
2022/10/14 02:32:48;;;;;;;;;4.00;4.00;;;;;;;;5087428;27;45421;-76
2022/10/14 02:35:15;;;;;;;;;3.33;3.33;;;;;;;;5090251;27;45490;-76
2022/10/14 02:37:41;;;;;;;;;4.33;4.00;;;;;;;;5087037;27;45486;-76
2022/10/14 02:40:10;;;;;;;;;4.00;3.67;;;;;;;;5068586;27;45222;-76
2022/10/14 02:42:35;;;;;;;;;3.67;3.33;;;;;;;;5086634;27;45328;-75
2022/10/14 02:45:00;;;;;;;;;1.00;1.00;;;;;;;;5096531;27;45346;-76
2022/10/14 02:47:26;;;;;;;;;2.00;2.00;;;;;;;;5086206;27;45402;-75
2022/10/14 02:49:52;;;;;;;;;3.33;2.67;;;;;;;;5096173;27;45354;-76
2022/10/14 02:52:18;;;;;;;;;4.00;4.00;;;;;;;;5079818;27;46275;-75
2022/10/14 02:54:44;;;;;;;;;4.00;3.67;;;;;;;;5096066;27;46119;-76
2022/10/14 02:57:09;;;;;;;;;5.33;4.00;;;;;;;;5096290;27;45138;-76
2022/10/14 02:59:35;;;;;;;;;3.00;3.00;;;;;;;;5093734;27;45223;-76
2022/10/14 03:02:00;;;;;;;;;4.00;3.00;;;;;;;;5086527;27;45450;-76
2022/10/14 03:04:25;;;;;;;;;3.00;3.00;;;;;;;;5094163;27;45608;-75
2022/10/14 03:06:50;;;;;;;;;4.00;4.00;;;;;;;;5088286;27;45529;-76
2022/10/14 03:09:16;;;;;;;;;3.00;3.00;;;;;;;;5065703;27;45344;-76
2022/10/14 03:11:41;;;;;;;;;4.00;3.67;;;;;;;;5077565;27;45964;-76
2022/10/14 03:14:06;;;;;;;;;3.67;3.33;;;;;;;;5092861;27;45413;-76
2022/10/14 03:16:31;;;;;;;;;4.33;3.67;;;;;;;;5079666;27;45794;-76
2022/10/14 03:18:57;;;;;;;;;5.00;3.00;;;;;;;;5089051;27;45306;-76
2022/10/14 03:21:22;;;;;;;;;5.00;4.00;;;;;;;;5089521;27;45422;-75
2022/10/14 03:23:47;;;;;;;;;4.33;4.00;;;;;;;;5090360;27;45873;-76
2022/10/14 03:26:12;;;;;;;;;4.00;4.00;;;;;;;;5089461;27;45443;-76
2022/10/14 03:28:37;;;;;;;;;4.00;3.00;;;;;;;;5094658;27;45484;-76
2022/10/14 03:31:03;;;;;;;;;5.00;4.00;;;;;;;;5094754;27;45493;-76
2022/10/14 03:33:28;;;;;;;;;5.33;4.00;;;;;;;;5094309;27;45481;-75
2022/10/14 03:35:53;;;;;;;;;4.00;3.00;;;;;;;;5089692;27;45341;-76
2022/10/14 03:38:18;;;;;;;;;4.00;4.00;;;;;;;;5082298;27;45376;-76
2022/10/14 03:40:43;;;;;;;;;4.00;4.00;;;;;;;;5073506;27;45636;-75
2022/10/14 03:43:09;;;;;;;;;7.00;4.33;;;;;;;;5083565;27;46371;-76
2022/10/14 03:45:34;;;;;;;;;5.00;4.00;;;;;;;;5088075;27;45430;-76
2022/10/14 03:47:59;;;;;;;;;3.00;3.00;;;;;;;;5075165;27;45527;-75
2022/10/14 03:50:24;;;;;;;;;4.67;4.67;;;;;;;;5094607;27;45674;-75
2022/10/14 03:52:49;;;;;;;;;4.67;4.67;;;;;;;;5090259;27;45672;-75
2022/10/14 03:55:15;;;;;;;;;4.67;4.67;;;;;;;;5091089;27;45229;-76
2022/10/14 03:57:40;;;;;;;;;4.00;4.00;;;;;;;;5088279;27;45314;-76
2022/10/14 04:00:06;;;;;;;;;3.00;3.00;;;;;;;;5084630;27;45566;-76
2022/10/14 04:02:31;;;;;;;;;3.67;2.00;;;;;;;;5092508;27;45307;-76
2022/10/14 04:04:56;;;;;;;;;3.33;3.33;;;;;;;;5089483;27;45306;-76
2022/10/14 04:07:21;;;;;;;;;2.00;2.00;;;;;;;;5093457;27;45261;-76
2022/10/14 04:09:46;;;;;;;;;4.67;3.00;;;;;;;;5087283;27;45505;-75
2022/10/14 04:12:12;;;;;;;;;3.00;3.00;;;;;;;;5097054;27;45983;-75
2022/10/14 04:14:37;;;;;;;;;2.67;2.67;;;;;;;;5090599;27;45374;-76
2022/10/14 04:17:02;;;;;;;;;2.00;2.00;;;;;;;;5095880;27;45219;-76
2022/10/14 04:19:27;;;;;;;;;3.00;3.00;;;;;;;;5094256;27;45312;-76
2022/10/14 04:21:52;;;;;;;;;3.33;3.00;;;;;;;;5098545;27;45200;-76
2022/10/14 04:24:18;;;;;;;;;2.00;2.00;;;;;;;;5091985;27;45382;-75
2022/10/14 04:26:43;;;;;;;;;3.00;3.00;;;;;;;;5093976;27;45303;-75
2022/10/14 04:29:08;;;;;;;;;2.00;2.00;;;;;;;;5097999;27;45473;-76
2022/10/14 04:31:33;;;;;;;;;3.00;2.00;;;;;;;;5088651;27;46413;-76
2022/10/14 04:33:58;;;;;;;;;3.00;2.00;;;;;;;;5091136;27;45375;-75
2022/10/14 04:36:24;;;;;;;;;3.00;3.00;;;;;;;;5094421;27;45574;-76
2022/10/14 04:38:49;;;;;;;;;2.33;2.33;;;;;;;;5093410;27;45419;-75
2022/10/14 04:41:14;;;;;;;;;5.00;4.00;;;;;;;;5096616;27;46354;-75
2022/10/14 04:43:39;;;;;;;;;3.00;3.00;;;;;;;;5096614;27;45280;-75
2022/10/14 04:46:05;;;;;;;;;4.00;3.67;;;;;;;;5097543;27;45226;-76
2022/10/14 04:48:30;;;;;;;;;5.00;4.00;;;;;;;;5099896;27;45395;-75
2022/10/14 04:50:55;;;;;;;;;3.00;3.00;;;;;;;;5091218;27;46164;-75
2022/10/14 04:53:21;;;;;;;;;2.00;2.00;;;;;;;;5091722;27;44694;-76
2022/10/14 04:55:48;;;;;;;;;4.67;4.67;;;;;;;;5092038;27;45286;-76
2022/10/14 04:58:13;;;;;;;;;3.67;3.67;;;;;;;;5088375;27;45452;-76
2022/10/14 05:00:38;;;;;;;;;8.67;6.00;;;;;;;;5100896;27;45520;-75
2022/10/14 05:03:04;;;;;;;;;3.00;3.00;;;;;;;;5098252;27;45421;-75
2022/10/14 05:05:29;;;;;;;;;4.00;4.00;;;;;;;;5091544;27;45579;-76
2022/10/14 05:07:54;;;;;;;;;2.33;2.33;;;;;;;;5093347;27;45312;-76
2022/10/14 05:10:20;;;;;;;;;3.00;2.00;;;;;;;;5094173;27;45368;-76
2022/10/14 05:12:45;;;;;;;;;3.00;3.00;;;;;;;;5080583;27;45536;-75
2022/10/14 05:15:11;;;;;;;;;3.00;3.00;;;;;;;;5090893;27;45825;-75
2022/10/14 05:17:38;;;;;;;;;4.00;4.00;;;;;;;;5100475;27;45524;-76
2022/10/14 05:20:03;;;;;;;;;3.67;3.00;;;;;;;;5071258;27;48071;-76
2022/10/14 05:22:28;;;;;;;;;3.00;3.00;;;;;;;;5090468;27;45342;-75
2022/10/14 05:24:53;;;;;;;;;4.00;4.00;;;;;;;;5088391;27;45288;-75
2022/10/14 05:27:19;;;;;;;;;2.00;2.00;;;;;;;;5080389;27;45798;-75
2022/10/14 05:29:44;;;;;;;;;4.67;3.33;;;;;;;;5087363;27;45453;-75
2022/10/14 05:32:09;;;;;;;;;4.00;2.67;;;;;;;;5086947;27;45281;-76
2022/10/14 05:34:34;;;;;;;;;5.00;4.00;;;;;;;;5092874;27;45394;-75
2022/10/14 05:37:00;;;;;;;;;4.00;4.00;;;;;;;;5097768;27;45537;-75
2022/10/14 05:39:25;;;;;;;;;4.67;4.67;;;;;;;;5095561;27;45588;-75
2022/10/14 05:41:50;;;;;;;;;4.33;4.33;;;;;;;;5090556;27;45245;-75
2022/10/14 05:44:15;;;;;;;;;6.00;3.33;;;;;;;;5076937;27;45221;-75
2022/10/14 05:46:40;;;;;;;;;3.00;3.00;;;;;;;;5099466;27;45196;-75
2022/10/14 05:49:06;;;;;;;;;3.00;3.00;;;;;;;;5086566;27;45557;-78
2022/10/14 05:51:32;;;;;;;;;3.00;3.00;;;;;;;;5089914;27;45290;-75
2022/10/14 05:53:57;;;;;;;;;5.00;5.00;;;;;;;;5095297;27;45342;-76
2022/10/14 05:56:23;;;;;;;;;6.00;5.00;;;;;;;;5095274;27;45474;-77
2022/10/14 05:58:48;;;;;;;;;4.67;4.00;;;;;;;;5068699;27;47373;-76
2022/10/14 06:01:13;;;;;;;;;5.00;4.00;;;;;;;;5094520;27;45430;-76
2022/10/14 06:03:38;;;;;;;;;7.00;4.33;;;;;;;;5074728;28;45355;-76
2022/10/14 06:06:03;;;;;;;;;4.67;4.67;;;;;;;;5088432;27;45556;-76
2022/10/14 06:08:29;;;;;;;;;6.33;5.00;;;;;;;;5090246;27;45506;-78
2022/10/14 06:10:54;;;;;;;;;4.67;4.67;;;;;;;;5098965;27;45288;-79
2022/10/14 06:13:20;;;;;;;;;7.33;5.33;;;;;;;;5095937;27;45453;-80
2022/10/14 06:15:45;;;;;;;;;5.00;5.00;;;;;;;;5093135;27;45500;-76
2022/10/14 06:18:11;;;;;;;;;5.33;5.33;;;;;;;;5096067;27;45287;-76
2022/10/14 06:20:36;;;;;;;;;6.00;5.00;;;;;;;;5091231;27;45555;-76
2022/10/14 06:23:02;;;;;;;;;4.67;4.67;;;;;;;;5093412;27;46206;-79
2022/10/14 06:25:28;;;;;;;;;5.67;4.33;;;;;;;;5087986;27;45243;-76
2022/10/14 06:27:53;;;;;;;;;5.00;5.00;;;;;;;;5088230;27;45343;-77
2022/10/14 06:30:19;;;;;;;;;5.00;5.00;;;;;;;;5088139;27;45389;-79
2022/10/14 06:32:44;;;;;;;;;8.00;6.00;;;;;;;;5094178;27;45592;-79
2022/10/14 06:35:09;;;;;;;;;6.00;6.00;;;;;;;;5094514;27;45293;-78
2022/10/14 06:37:34;;;;;;;;;7.33;5.33;;;;;;;;5074414;27;46523;-77
2022/10/14 06:39:59;;;;;;;;;5.33;5.33;;;;;;;;5082617;27;45355;-76
2022/10/14 06:42:25;;;;;;;;;6.00;6.00;;;;;;;;5083577;27;45443;-75
2022/10/14 06:44:50;;;;;;;;;8.00;8.00;;;;;;;;5091661;27;45426;-76
2022/10/14 06:47:15;;;;;;;;;6.00;6.00;;;;;;;;5099817;27;45299;-76
2022/10/14 06:49:41;;;;;;;;;6.00;6.00;;;;;;;;5069941;28;45205;-76
2022/10/14 06:52:06;;;;;;;;;7.00;5.33;;;;;;;;5083370;27;45395;-78
2022/10/14 06:54:31;;;;;;;;;5.00;5.00;;;;;;;;5071202;28;46934;-76
2022/10/14 06:56:57;;;;;;;;;6.67;6.67;;;;;;;;5071824;27;46591;-76
2022/10/14 06:59:22;;;;;;;;;6.00;5.00;;;;;;;;5084558;27;45420;-76
2022/10/14 07:01:47;;;;;;;;;6.00;6.00;;;;;;;;5093164;27;45345;-76
2022/10/14 07:04:12;;;;;;;;;6.00;6.00;;;;;;;;5074327;27;45647;-75
2022/10/14 07:06:38;;;;;;;;;6.33;6.33;;;;;;;;5088107;27;45649;-75
2022/10/14 07:09:03;;;;;;;;;5.33;4.00;;;;;;;;5081809;27;45305;-76
2022/10/14 07:11:28;;;;;;;;;4.33;4.33;;;;;;;;5086196;27;45293;-76
2022/10/14 07:13:54;;;;;;;;;8.33;7.67;;;;;;;;5080977;27;45501;-76
2022/10/14 07:16:19;;;;;;;;;6.00;6.00;;;;;;;;5085173;27;45366;-77
2022/10/14 07:18:45;;;;;;;;;6.33;5.00;;;;;;;;5070543;28;45439;-75
2022/10/14 07:21:10;;;;;;;;;7.67;5.00;;;;;;;;5084142;27;45430;-77
2022/10/14 07:23:35;;;;;;;;;6.00;6.00;;;;;;;;5073199;27;46098;-76
2022/10/14 07:26:00;;;;;;;;;7.33;7.33;;;;;;;;5084644;27;45447;-75
2022/10/14 07:28:25;;;;;;;;;6.00;5.00;;;;;;;;5089414;27;45335;-75
2022/10/14 07:31:00;;;;;;;;;5.00;5.00;;;;;;;;5083713;27;45276;-74
2022/10/14 07:33:26;;;;;;;;;5.00;5.00;;;;;;;;5080234;27;45363;-74
2022/10/14 07:35:51;;;;;;;;;5.00;4.00;;;;;;;;5087468;27;45259;-74
2022/10/14 07:38:17;;;;;;;;;5.00;3.33;;;;;;;;5097001;27;45461;-75
2022/10/14 07:40:42;;;;;;;;;2.33;2.33;;;;;;;;5089907;27;45415;-74
2022/10/14 07:43:07;;;;;;;;;2.00;2.00;;;;;;;;5080589;27;45241;-74
2022/10/14 07:45:35;;;;;;;;;5.00;4.00;;;;;;;;5083697;27;46596;-75
2022/10/14 07:48:00;;;;;;;;;3.00;3.00;;;;;;;;5078361;27;45808;-74
2022/10/14 07:50:25;;;;;;;;;2.67;2.00;;;;;;;;5088772;27;45416;-74
2022/10/14 07:52:50;;;;;;;;;2.00;2.00;;;;;;;;5102447;27;44959;-74
2022/10/14 07:55:15;;;;;;;;;2.00;2.00;;;;;;;;5099736;27;45595;-74
2022/10/14 07:57:41;;;;;;;;;2.00;1.00;;;;;;;;5082262;27;45862;-75
2022/10/14 08:00:06;;;;;;;;;2.33;2.00;;;;;;;;5078528;27;45340;-75
2022/10/14 08:02:32;;;;;;;;;2.00;2.00;;;;;;;;5096721;27;45383;-74
2022/10/14 08:04:57;;;;;;;;;3.00;3.00;;;;;;;;5099538;27;45305;-75
2022/10/14 08:07:24;;;;;;;;;4.00;3.00;;;;;;;;5090181;27;45327;-75
2022/10/14 08:09:49;;;;;;;;;3.00;1.00;;;;;;;;5093021;27;45266;-75
2022/10/14 08:12:14;;;;;;;;;4.33;4.00;;;;;;;;5092398;27;45342;-74
2022/10/14 08:14:39;;;;;;;;;3.67;2.33;;;;;;;;5092339;27;45401;-74
2022/10/14 08:17:04;;;;;;;;;2.00;2.00;;;;;;;;5094968;27;45448;-74
2022/10/14 08:19:30;;;;;;;;;3.00;3.00;;;;;;;;5092875;27;45347;-74
2022/10/14 08:21:55;;;;;;;;;3.00;3.00;;;;;;;;5094364;27;45371;-74
2022/10/14 08:24:20;;;;;;;;;5.00;4.00;;;;;;;;5095001;27;45420;-75
2022/10/14 08:27:05;;;;;;;;;3.00;3.00;;;;;;;;5096045;27;45331;-74
2022/10/14 08:29:31;;;;;;;;;2.00;2.00;;;;;;;;5094506;27;45462;-74
2022/10/14 08:31:56;;;;;;;;;2.00;2.00;;;;;;;;5081149;27;46515;-74
2022/10/14 08:34:23;;;;;;;;;3.00;3.00;;;;;;;;5081293;27;46803;-74
2022/10/14 08:36:48;;;;;;;;;5.00;2.00;;;;;;;;5090426;27;45586;-74
2022/10/14 08:39:15;;;;;;;;;5.00;4.00;;;;;;;;5089306;27;45272;-75
2022/10/14 08:41:52;;;;;;;;;3.33;3.00;;;;;;;;5087198;27;45344;-74
2022/10/14 08:44:18;;;;;;;;;2.33;2.33;;;;;;;;5051219;28;45384;-75
2022/10/14 08:46:46;;;;;;;;;2.00;2.00;;;;;;;;5049099;28;45383;-74
2022/10/14 08:49:16;;;;;;;;;4.00;2.00;;;;;;;;5053146;28;45458;-74
2022/10/14 08:51:43;;;;;;;;;4.33;3.33;;;;;;;;5047795;28;45394;-74
2022/10/14 08:54:11;;;;;;;;;2.00;2.00;;;;;;;;5047888;28;46205;-73
2022/10/14 08:56:39;;;;;;;;;3.00;3.00;;;;;;;;5054837;28;45659;-73
2022/10/14 08:59:06;;;;;;;;;2.00;2.00;;;;;;;;5060440;28;45514;-73
2022/10/14 09:01:34;;;;;;;;;4.00;3.00;;;;;;;;5052714;28;45866;-73
2022/10/14 09:04:04;;;;;;;;;5.67;4.00;;;;;;;;5045780;28;46310;-73
2022/10/14 09:06:33;;;;;;;;;2.67;2.67;;;;;;;;5041992;28;45454;-74
2022/10/14 09:09:04;;;;;;;;;4.33;3.67;;;;;;;;5045803;28;45471;-74
2022/10/14 09:11:33;;;;;;;;;2.67;1.67;;;;;;;;5055336;28;45371;-74
2022/10/14 09:13:59;;;;;;;;;2.00;2.00;;;;;;;;5052643;28;45575;-73
2022/10/14 09:16:28;;;;;;;;;3.00;3.00;;;;;;;;5052944;28;45561;-73
2022/10/14 09:19:00;;;;;;;;;2.00;2.00;;;;;;;;5050386;28;45843;-74
2022/10/14 09:21:30;;;;;;;;;2.00;2.00;;;;;;;;5051783;28;45434;-73
2022/10/14 09:24:16;;;;;;;;;3.00;2.00;;;;;;;;5046955;28;46269;-73
2022/10/14 09:26:42;;;;;;;;;2.00;2.00;;;;;;;;5037526;28;45296;-74
2022/10/14 09:29:17;;;;;;;;;1.00;1.00;;;;;;;;5048370;28;46168;-74
2022/10/14 09:31:43;;;;;;;;;4.00;3.00;;;;;;;;5062510;28;45898;-74
2022/10/14 09:34:12;;;;;;;;;3.00;3.00;;;;;;;;5052179;28;45479;-74
2022/10/14 09:36:38;;;;;;;;;2.00;2.00;;;;;;;;5041884;28;45280;-74
2022/10/14 09:39:03;;;;;;;;;2.00;2.00;;;;;;;;5047813;28;45438;-74
2022/10/14 09:41:29;;;;;;;;;3.00;2.67;;;;;;;;5048828;28;45688;-74
2022/10/14 09:44:17;;;;;;;;;2.00;2.00;;;;;;;;5084635;27;46335;-77
2022/10/14 09:46:45;;;;;;;;;6.00;5.00;;;;;;;;5097066;27;45461;-74
2022/10/14 09:49:33;;;;;;;;;2.67;1.67;;;;;;;;5068190;27;45199;-74
2022/10/14 09:52:01;;;;;;;;;2.00;2.00;;;;;;;;5057089;27;45827;-74
2022/10/14 09:54:28;;;;;;;;;2.00;2.00;;;;;;;;5093340;27;46266;-74
2022/10/14 09:57:07;;;;;;;;;7.33;5.00;;;;;;;;5096297;27;45347;-74
2022/10/14 09:59:35;;;;;;;;;2.00;2.00;;;;;;;;5097880;27;45432;-74
2022/10/14 10:02:02;;;;;;;;;6.33;3.00;;;;;;;;5092126;27;45516;-74
2022/10/14 10:04:32;;;;;;;;;2.00;2.00;;;;;;;;5086947;27;46234;-74
2022/10/14 10:06:59;;;;;;;;;2.33;2.33;;;;;;;;5086312;27;45881;-74
2022/10/14 10:09:25;;;;;;;;;3.00;2.33;;;;;;;;5085821;27;45783;-74
2022/10/14 10:11:50;;;;;;;;;3.33;3.33;;;;;;;;5089992;27;45487;-74
2022/10/14 10:14:26;;;;;;;;;2.00;2.00;;;;;;;;5080880;27;46930;-76
2022/10/14 10:17:07;;;;;;;;;2.33;2.00;;;;;;;;5092629;27;45642;-77
2022/10/14 10:19:36;;;;;;;;;4.67;3.00;;;;;;;;5089887;27;45465;-74
2022/10/14 10:22:25;;;;;;;;;2.00;1.00;;;;;;;;5083395;27;45301;-74
2022/10/14 10:24:59;;;;;;;;;3.67;3.00;;;;;;;;5085206;27;47229;-74
2022/10/14 10:27:24;;;;;;;;;1.00;1.00;;;;;;;;5093419;27;45418;-74
2022/10/14 10:29:49;;;;;;;;;3.00;3.00;;;;;;;;5087323;27;45616;-75
2022/10/14 10:32:14;;;;;;;;;6.00;3.33;;;;;;;;5092482;27;45489;-75
2022/10/14 10:34:46;;;;;;;;;1.33;1.33;;;;;;;;5094630;27;46503;-75
2022/10/14 10:37:11;;;;;;;;;4.33;2.67;;;;;;;;5081138;27;45351;-75
2022/10/14 10:39:54;;;;;;;;;2.33;2.33;;;;;;;;5084707;27;45683;-75
2022/10/14 10:42:22;;;;;;;;;3.00;3.00;;;;;;;;5088345;27;45355;-75
2022/10/14 10:44:48;;;;;;;;;3.33;3.00;;;;;;;;5083423;27;45420;-75
2022/10/14 10:47:40;;;;;;;;;2.00;2.00;;;;;;;;5075217;27;45351;-75
2022/10/14 10:50:09;;;;;;;;;1.33;1.33;;;;;;;;5079749;27;45449;-75
2022/10/14 10:52:34;;;;;;;;;1.67;1.67;;;;;;;;5077042;27;46086;-75
2022/10/14 10:55:10;;;;;;;;;1.00;1.00;;;;;;;;5094324;27;45355;-75
2022/10/14 10:57:44;;;;;;;;;1.00;1.00;;;;;;;;5099466;27;45355;-75
2022/10/14 11:00:15;;;;;;;;;2.33;1.33;;;;;;;;5095411;27;45529;-75
2022/10/14 11:02:53;;;;;;;;;1.00;1.00;;;;;;;;5095594;27;45520;-79
2022/10/14 11:05:31;;;;;;;;;0.00;0.00;;;;;;;;5088689;27;45576;-77
2022/10/14 11:13:36;;;;;;;;;1.33;1.00;;;;;;;;5084574;27;45331;-77
2022/10/14 11:16:19;;;;;;;;;1.00;1.00;;;;;;;;5085451;27;45335;-77
2022/10/14 11:18:49;;;;;;;;;0.67;0.67;;;;;;;;5088487;27;45625;-77
2022/10/14 11:21:14;;;;;;;;;0.00;0.00;;;;;;;;5084865;27;45376;-77
2022/10/14 11:23:39;;;;;;;;;0.00;0.00;;;;;;;;5072818;27;45850;-77
2022/10/14 11:26:09;;;;;;;;;0.00;0.00;;;;;;;;5084181;27;45579;-76
2022/10/14 11:28:53;;;;;;;;;0.00;0.00;;;;;;;;5094244;27;45304;-77
2022/10/14 11:31:25;;;;;;;;;0.33;0.33;;;;;;;;5086453;27;45359;-77
2022/10/14 11:34:06;;;;;;;;;0.33;0.33;;;;;;;;5097188;27;45408;-77
2022/10/14 11:36:49;;;;;;;;;2.00;2.00;;;;;;;;5094810;27;45269;-77
2022/10/14 11:39:37;;;;;;;;;0.00;0.00;;;;;;;;5087688;27;45415;-77
2022/10/14 11:42:12;;;;;;;;;0.00;0.00;;;;;;;;5084590;27;45256;-78
2022/10/14 11:44:39;;;;;;;;;0.33;0.33;;;;;;;;5083917;27;45556;-78
2022/10/14 11:47:12;;;;;;;;;0.33;0.33;;;;;;;;5081484;27;45320;-78
2022/10/14 11:49:52;;;;;;;;;1.33;1.00;;;;;;;;5082917;27;47501;-77
2022/10/14 11:52:25;;;;;;;;;0.00;0.00;;;;;;;;5073830;27;45602;-75
2022/10/14 11:54:53;;;;;;;;;1.33;1.33;;;;;;;;5085458;27;45162;-75
2022/10/14 11:57:37;;;;;;;;;2.00;2.00;;;;;;;;5090436;27;45398;-74
2022/10/14 12:00:06;;;;;;;;;2.00;2.00;;;;;;;;5086263;27;45430;-74
2022/10/14 12:02:34;;;;;;;;;1.00;1.00;;;;;;;;5074112;28;45312;-74
2022/10/14 12:05:10;;;;;;;;;1.00;1.00;;;;;;;;5082499;27;45672;-75
2022/10/14 12:07:43;;;;;;;;;2.33;2.33;;;;;;;;5094090;27;46632;-74
2022/10/14 12:10:18;;;;;;;;;2.00;2.00;;;;;;;;5088688;27;45441;-74
2022/10/14 12:12:43;;;;;;;;;2.00;2.00;;;;;;;;5066942;28;45381;-74
2022/10/14 12:15:20;;;;;;;;;1.33;1.33;;;;;;;;5085276;27;45199;-75
2022/10/14 12:17:49;;;;;;;;;1.00;1.00;;;;;;;;5079128;28;45256;-75
2022/10/14 12:20:27;;;;;;;;;2.00;1.00;;;;;;;;5085185;27;45295;-75
2022/10/14 12:22:53;;;;;;;;;0.33;0.33;;;;;;;;5079751;27;45296;-76
2022/10/14 12:25:20;;;;;;;;;0.33;0.33;;;;;;;;5086492;27;45347;-74
2022/10/14 12:27:45;;;;;;;;;0.67;0.33;;;;;;;;5092893;27;46754;-72
2022/10/14 12:30:30;;;;;;;;;2.33;1.00;;;;;;;;5087939;27;45230;-73
2022/10/14 12:33:00;;;;;;;;;1.00;1.00;;;;;;;;5082871;27;45225;-74
2022/10/14 12:35:46;;;;;;;;;1.00;1.00;;;;;;;;5092340;27;45288;-74
2022/10/14 12:38:11;;;;;;;;;1.00;1.00;;;;;;;;5086856;27;46152;-73
2022/10/14 12:40:36;;;;;;;;;0.00;0.00;;;;;;;;5092748;27;45473;-72
2022/10/14 12:43:22;;;;;;;;;1.00;1.00;;;;;;;;5102313;27;45359;-70
2022/10/14 12:45:59;;;;;;;;;5.00;2.67;;;;;;;;5092108;27;45419;-72
2022/10/14 12:48:26;;;;;;;;;2.00;2.00;;;;;;;;5073006;27;46938;-72
2022/10/14 12:51:12;;;;;;;;;3.00;1.67;;;;;;;;5094149;27;45559;-72
2022/10/14 12:53:40;;;;;;;;;2.00;2.00;;;;;;;;5086534;27;45557;-72
2022/10/14 12:56:06;;;;;;;;;3.33;3.00;;;;;;;;5076990;27;45530;-72
2022/10/14 12:58:37;;;;;;;;;3.00;2.00;;;;;;;;5087997;27;46190;-72
2022/10/14 13:01:21;;;;;;;;;5.33;3.00;;;;;;;;5088351;27;45393;-72
2022/10/14 13:03:52;;;;;;;;;5.00;3.00;;;;;;;;5091082;27;45355;-72
2022/10/14 13:06:53;;;;;;;;;6.33;6.33;;;;;;;;5093071;27;45220;-72
2022/10/14 13:09:28;;;;;;;;;5.00;5.00;;;;;;;;4982811;28;45562;-73
2022/10/14 13:11:54;;;;;;;;;6.67;5.00;;;;;;;;5077514;27;45323;-73
2022/10/14 13:14:26;;;;;;;;;5.00;4.00;;;;;;;;5086256;27;44670;-73
2022/10/14 13:16:52;;;;;;;;;4.00;4.00;;;;;;;;5089937;27;45431;-73
2022/10/14 13:19:32;;;;;;;;;3.33;3.33;;;;;;;;5087386;27;46319;-73
2022/10/14 13:21:58;;;;;;;;;2.67;2.67;;;;;;;;5092716;27;45376;-73
2022/10/14 13:24:26;;;;;;;;;3.33;3.33;;;;;;;;5071185;28;45248;-72
2022/10/14 13:26:51;;;;;;;;;4.67;3.33;;;;;;;;5093669;27;45241;-73
2022/10/14 13:29:19;;;;;;;;;4.00;4.00;;;;;;;;5094960;27;46085;-72
2022/10/14 13:32:03;;;;;;;;;4.00;4.00;;;;;;;;5094377;27;45391;-72
2022/10/14 13:34:48;;;;;;;;;5.00;4.67;;;;;;;;5089776;27;45999;-72
2022/10/14 13:37:32;;;;;;;;;4.00;4.00;;;;;;;;5095390;27;46398;-72
2022/10/14 13:40:04;;;;;;;;;1.33;1.33;;;;;;;;5090694;27;45460;-72
2022/10/14 13:42:33;;;;;;;;;5.00;5.00;;;;;;;;5081937;27;45702;-72
2022/10/14 13:45:08;;;;;;;;;5.00;5.00;;;;;;;;5088257;27;45386;-72
2022/10/14 13:47:34;;;;;;;;;5.00;3.67;;;;;;;;5083956;27;45256;-72
2022/10/14 13:50:00;;;;;;;;;5.00;5.00;;;;;;;;5089489;27;45612;-74
2022/10/14 13:52:26;;;;;;;;;6.33;5.33;;;;;;;;5086788;27;45317;-73
2022/10/14 13:55:12;;;;;;;;;5.00;5.00;;;;;;;;5091683;27;45454;-73
2022/10/14 13:57:37;;;;;;;;;5.33;4.00;;;;;;;;5080840;27;45583;-73
2022/10/14 14:00:19;;;;;;;;;5.67;5.67;;;;;;;;5075487;27;45514;-72
2022/10/14 14:02:45;;;;;;;;;6.00;6.00;;;;;;;;5089252;27;45347;-73
2022/10/14 14:05:14;;;;;;;;;5.33;5.33;;;;;;;;5086065;27;45418;-72
2022/10/14 14:07:41;;;;;;;;;7.00;7.00;;;;;;;;5097012;27;45410;-72
2022/10/14 14:10:08;;;;;;;;;5.67;5.00;;;;;;;;5088383;27;45474;-72
2022/10/14 14:12:33;;;;;;;;;8.00;8.00;;;;;;;;5098214;27;45361;-72
2022/10/14 14:14:59;;;;;;;;;15.33;13.00;;;;;;;;5090243;27;45235;-72
2022/10/14 14:17:26;;;;;;;;;13.00;12.00;;;;;;;;5081685;27;46100;-72
2022/10/14 14:19:51;;;;;;;;;9.33;9.33;;;;;;;;5091172;27;45704;-73
2022/10/14 14:22:23;;;;;;;;;7.67;7.67;;;;;;;;5077507;27;45564;-72
2022/10/14 14:24:48;;;;;;;;;14.00;14.00;;;;;;;;5089811;27;45363;-72
2022/10/14 14:27:15;;;;;;;;;12.00;12.00;;;;;;;;5071612;27;45917;-73
2022/10/14 14:29:41;;;;;;;;;18.67;18.67;;;;;;;;5086292;27;45355;-71
2022/10/14 14:32:12;;;;;;;;;39.00;33.00;;;;;;;;5080533;27;45518;-71
2022/10/14 14:34:38;;;;;;;;;14.00;14.00;;;;;;;;5092804;27;45408;-71
2022/10/14 14:37:03;;;;;;;;;25.33;20.33;;;;;;;;5088473;27;45328;-75
2022/10/14 14:39:29;;;;;;;;;17.00;14.33;;;;;;;;5075895;27;46580;-73
2022/10/14 14:41:55;;;;;;;;;8.00;6.00;;;;;;;;5089788;27;45431;-74
2022/10/14 14:44:25;;;;;;;;;21.33;19.33;;;;;;;;5086736;27;45414;-74
2022/10/14 14:46:51;;;;;;;;;11.00;10.00;;;;;;;;5081959;27;45409;-74
2022/10/14 14:49:20;;;;;;;;;13.33;11.67;;;;;;;;5088325;27;45512;-74
2022/10/14 14:51:45;;;;;;;;;10.00;9.33;;;;;;;;5082753;27;45355;-74
2022/10/14 14:54:16;;;;;;;;;7.00;7.00;;;;;;;;5093512;27;46858;-74